sensor_id;sensor_type;location;lat;lon;timestamp;P1;durP1;ratioP1;P2;durP2;ratioP2
60336;SDS011;46978;50.288;28.624;2023-04-24T00:00:22;28.31;;;17.34;;
60336;SDS011;46978;50.288;28.624;2023-04-24T00:01:23;26.77;;;16.53;;
60336;SDS011;46978;50.288;28.624;2023-04-24T00:02:25;27.99;;;16.91;;
60336;SDS011;46978;50.288;28.624;2023-04-24T00:03:29;28.26;;;16.76;;
60336;SDS011;46978;50.288;28.624;2023-04-24T00:04:31;28.12;;;16.28;;
60336;SDS011;46978;50.288;28.624;2023-04-24T00:05:32;26.25;;;16.34;;
60336;SDS011;46978;50.288;28.624;2023-04-24T00:06:34;27.26;;;16.55;;
60336;SDS011;46978;50.288;28.624;2023-04-24T00:07:36;26.29;;;16.72;;
60336;SDS011;46978;50.288;28.624;2023-04-24T00:08:38;26.99;;;16.87;;
60336;SDS011;46978;50.288;28.624;2023-04-24T00:09:40;32.92;;;18.64;;
60336;SDS011;46978;50.288;28.624;2023-04-24T00:10:42;39.13;;;19.85;;
60336;SDS011;46978;50.288;28.624;2023-04-24T00:11:44;26.35;;;16.99;;
60336;SDS011;46978;50.288;28.624;2023-04-24T00:12:46;26.56;;;17.23;;
60336;SDS011;46978;50.288;28.624;2023-04-24T00:13:47;34.94;;;18.31;;
60336;SDS011;46978;50.288;28.624;2023-04-24T00:14:49;29.20;;;17.74;;
60336;SDS011;46978;50.288;28.624;2023-04-24T00:15:51;30.34;;;17.43;;
60336;SDS011;46978;50.288;28.624;2023-04-24T00:16:52;29.27;;;16.30;;
60336;SDS011;46978;50.288;28.624;2023-04-24T00:17:54;29.98;;;17.72;;
60336;SDS011;46978;50.288;28.624;2023-04-24T00:18:56;30.90;;;16.84;;
60336;SDS011;46978;50.288;28.624;2023-04-24T00:19:57;30.39;;;16.68;;
60336;SDS011;46978;50.288;28.624;2023-04-24T00:22:21;29.15;;;17.14;;
60336;SDS011;46978;50.288;28.624;2023-04-24T00:23:22;24.24;;;16.55;;
60336;SDS011;46978;50.288;28.624;2023-04-24T00:24:24;28.86;;;16.62;;
60336;SDS011;46978;50.288;28.624;2023-04-24T00:25:26;28.62;;;17.05;;
60336;SDS011;46978;50.288;28.624;2023-04-24T00:26:27;28.26;;;18.02;;
60336;SDS011;46978;50.288;28.624;2023-04-24T00:27:29;30.16;;;18.04;;
60336;SDS011;46978;50.288;28.624;2023-04-24T00:28:31;30.09;;;17.90;;
60336;SDS011;46978;50.288;28.624;2023-04-24T00:29:32;26.71;;;16.90;;
60336;SDS011;46978;50.288;28.624;2023-04-24T00:30:34;31.18;;;18.35;;
60336;SDS011;46978;50.288;28.624;2023-04-24T00:31:36;28.54;;;17.99;;
60336;SDS011;46978;50.288;28.624;2023-04-24T00:32:38;30.51;;;19.41;;
60336;SDS011;46978;50.288;28.624;2023-04-24T00:33:40;37.43;;;21.85;;
60336;SDS011;46978;50.288;28.624;2023-04-24T00:34:42;34.03;;;20.10;;
60336;SDS011;46978;50.288;28.624;2023-04-24T00:35:44;31.64;;;20.00;;
60336;SDS011;46978;50.288;28.624;2023-04-24T00:36:46;35.21;;;21.25;;
60336;SDS011;46978;50.288;28.624;2023-04-24T00:37:47;33.71;;;21.16;;
60336;SDS011;46978;50.288;28.624;2023-04-24T00:38:49;33.94;;;20.55;;
60336;SDS011;46978;50.288;28.624;2023-04-24T00:39:50;31.74;;;19.15;;
60336;SDS011;46978;50.288;28.624;2023-04-24T00:40:52;36.28;;;19.82;;
60336;SDS011;46978;50.288;28.624;2023-04-24T00:41:54;35.86;;;20.79;;
60336;SDS011;46978;50.288;28.624;2023-04-24T00:42:57;28.23;;;17.55;;
60336;SDS011;46978;50.288;28.624;2023-04-24T00:43:58;28.02;;;17.20;;
60336;SDS011;46978;50.288;28.624;2023-04-24T00:45:00;24.01;;;14.99;;
60336;SDS011;46978;50.288;28.624;2023-04-24T00:46:03;27.86;;;16.99;;
60336;SDS011;46978;50.288;28.624;2023-04-24T00:47:05;27.03;;;16.97;;
60336;SDS011;46978;50.288;28.624;2023-04-24T00:48:07;28.73;;;16.47;;
60336;SDS011;46978;50.288;28.624;2023-04-24T00:49:09;26.55;;;16.57;;
60336;SDS011;46978;50.288;28.624;2023-04-24T00:50:14;28.81;;;15.83;;
60336;SDS011;46978;50.288;28.624;2023-04-24T00:51:16;26.12;;;15.88;;
60336;SDS011;46978;50.288;28.624;2023-04-24T00:52:18;28.86;;;16.34;;
60336;SDS011;46978;50.288;28.624;2023-04-24T00:53:19;24.64;;;14.76;;
60336;SDS011;46978;50.288;28.624;2023-04-24T00:54:21;28.20;;;15.57;;
60336;SDS011;46978;50.288;28.624;2023-04-24T00:55:23;28.07;;;16.44;;
60336;SDS011;46978;50.288;28.624;2023-04-24T00:56:26;27.37;;;16.04;;
60336;SDS011;46978;50.288;28.624;2023-04-24T00:57:30;26.49;;;16.42;;
60336;SDS011;46978;50.288;28.624;2023-04-24T00:58:31;29.06;;;17.57;;
60336;SDS011;46978;50.288;28.624;2023-04-24T00:59:33;31.66;;;18.75;;
60336;SDS011;46978;50.288;28.624;2023-04-24T01:00:36;31.76;;;17.76;;
60336;SDS011;46978;50.288;28.624;2023-04-24T01:01:38;32.21;;;19.41;;
60336;SDS011;46978;50.288;28.624;2023-04-24T01:02:41;33.75;;;19.32;;
60336;SDS011;46978;50.288;28.624;2023-04-24T01:03:44;32.69;;;19.36;;
60336;SDS011;46978;50.288;28.624;2023-04-24T01:04:46;36.13;;;20.51;;
60336;SDS011;46978;50.288;28.624;2023-04-24T01:05:49;37.23;;;19.78;;
60336;SDS011;46978;50.288;28.624;2023-04-24T01:06:52;34.18;;;19.05;;
60336;SDS011;46978;50.288;28.624;2023-04-24T01:07:55;31.01;;;19.58;;
60336;SDS011;46978;50.288;28.624;2023-04-24T01:08:58;35.32;;;19.92;;
60336;SDS011;46978;50.288;28.624;2023-04-24T01:10:00;31.27;;;19.05;;
60336;SDS011;46978;50.288;28.624;2023-04-24T01:11:03;33.19;;;19.62;;
60336;SDS011;46978;50.288;28.624;2023-04-24T01:12:05;36.44;;;20.58;;
60336;SDS011;46978;50.288;28.624;2023-04-24T01:13:08;34.50;;;20.13;;
60336;SDS011;46978;50.288;28.624;2023-04-24T01:14:09;33.74;;;19.77;;
60336;SDS011;46978;50.288;28.624;2023-04-24T01:15:12;27.91;;;18.29;;
60336;SDS011;46978;50.288;28.624;2023-04-24T01:16:15;33.33;;;18.52;;
60336;SDS011;46978;50.288;28.624;2023-04-24T01:17:17;31.01;;;19.07;;
60336;SDS011;46978;50.288;28.624;2023-04-24T01:18:19;33.99;;;19.42;;
60336;SDS011;46978;50.288;28.624;2023-04-24T01:19:20;32.33;;;18.64;;
60336;SDS011;46978;50.288;28.624;2023-04-24T01:20:22;26.65;;;18.16;;
60336;SDS011;46978;50.288;28.624;2023-04-24T01:21:26;29.66;;;19.02;;
60336;SDS011;46978;50.288;28.624;2023-04-24T01:22:30;25.28;;;15.96;;
60336;SDS011;46978;50.288;28.624;2023-04-24T01:23:32;24.69;;;16.58;;
60336;SDS011;46978;50.288;28.624;2023-04-24T01:24:33;23.50;;;15.76;;
60336;SDS011;46978;50.288;28.624;2023-04-24T01:25:36;24.65;;;15.02;;
60336;SDS011;46978;50.288;28.624;2023-04-24T01:26:38;24.32;;;16.23;;
60336;SDS011;46978;50.288;28.624;2023-04-24T01:27:40;27.71;;;16.03;;
60336;SDS011;46978;50.288;28.624;2023-04-24T01:28:41;26.24;;;16.41;;
60336;SDS011;46978;50.288;28.624;2023-04-24T01:29:43;30.17;;;16.81;;
60336;SDS011;46978;50.288;28.624;2023-04-24T01:30:46;24.96;;;16.46;;
60336;SDS011;46978;50.288;28.624;2023-04-24T01:31:48;22.79;;;14.99;;
60336;SDS011;46978;50.288;28.624;2023-04-24T01:32:50;26.99;;;16.00;;
60336;SDS011;46978;50.288;28.624;2023-04-24T01:33:52;26.73;;;15.53;;
60336;SDS011;46978;50.288;28.624;2023-04-24T01:34:54;28.38;;;15.44;;
60336;SDS011;46978;50.288;28.624;2023-04-24T01:35:56;29.47;;;16.13;;
60336;SDS011;46978;50.288;28.624;2023-04-24T01:36:59;26.85;;;16.47;;
60336;SDS011;46978;50.288;28.624;2023-04-24T01:38:01;28.35;;;16.71;;
60336;SDS011;46978;50.288;28.624;2023-04-24T01:39:03;27.17;;;17.79;;
60336;SDS011;46978;50.288;28.624;2023-04-24T01:40:08;30.70;;;19.27;;
60336;SDS011;46978;50.288;28.624;2023-04-24T01:41:10;31.72;;;19.55;;
60336;SDS011;46978;50.288;28.624;2023-04-24T01:42:12;29.11;;;18.47;;
60336;SDS011;46978;50.288;28.624;2023-04-24T01:43:14;29.74;;;17.91;;
60336;SDS011;46978;50.288;28.624;2023-04-24T01:44:16;30.40;;;18.04;;
60336;SDS011;46978;50.288;28.624;2023-04-24T01:45:18;26.47;;;16.35;;
60336;SDS011;46978;50.288;28.624;2023-04-24T01:46:20;29.80;;;18.35;;
60336;SDS011;46978;50.288;28.624;2023-04-24T01:47:23;29.12;;;18.17;;
60336;SDS011;46978;50.288;28.624;2023-04-24T01:48:25;28.61;;;17.63;;
60336;SDS011;46978;50.288;28.624;2023-04-24T01:49:27;28.53;;;18.16;;
60336;SDS011;46978;50.288;28.624;2023-04-24T01:50:29;29.87;;;18.09;;
60336;SDS011;46978;50.288;28.624;2023-04-24T01:51:30;28.98;;;18.55;;
60336;SDS011;46978;50.288;28.624;2023-04-24T01:52:32;28.92;;;18.66;;
60336;SDS011;46978;50.288;28.624;2023-04-24T01:53:34;25.98;;;17.14;;
60336;SDS011;46978;50.288;28.624;2023-04-24T01:54:36;27.78;;;17.84;;
60336;SDS011;46978;50.288;28.624;2023-04-24T01:55:37;26.93;;;18.09;;
60336;SDS011;46978;50.288;28.624;2023-04-24T01:56:43;29.69;;;18.29;;
60336;SDS011;46978;50.288;28.624;2023-04-24T01:57:45;28.39;;;17.40;;
60336;SDS011;46978;50.288;28.624;2023-04-24T01:58:47;30.75;;;17.96;;
60336;SDS011;46978;50.288;28.624;2023-04-24T02:00:11;28.25;;;17.86;;
60336;SDS011;46978;50.288;28.624;2023-04-24T02:01:17;29.58;;;17.33;;
60336;SDS011;46978;50.288;28.624;2023-04-24T02:02:20;27.37;;;17.48;;
60336;SDS011;46978;50.288;28.624;2023-04-24T02:03:21;27.99;;;17.31;;
60336;SDS011;46978;50.288;28.624;2023-04-24T02:04:23;27.92;;;17.09;;
60336;SDS011;46978;50.288;28.624;2023-04-24T02:05:25;25.91;;;16.96;;
60336;SDS011;46978;50.288;28.624;2023-04-24T02:06:27;29.94;;;17.54;;
60336;SDS011;46978;50.288;28.624;2023-04-24T02:07:28;28.82;;;17.80;;
60336;SDS011;46978;50.288;28.624;2023-04-24T02:08:30;27.86;;;18.11;;
60336;SDS011;46978;50.288;28.624;2023-04-24T02:09:32;26.29;;;17.51;;
60336;SDS011;46978;50.288;28.624;2023-04-24T02:10:33;26.44;;;17.21;;
60336;SDS011;46978;50.288;28.624;2023-04-24T02:11:35;24.94;;;16.24;;
60336;SDS011;46978;50.288;28.624;2023-04-24T02:12:37;27.53;;;17.21;;
60336;SDS011;46978;50.288;28.624;2023-04-24T02:13:38;30.88;;;18.56;;
60336;SDS011;46978;50.288;28.624;2023-04-24T02:14:40;25.92;;;17.37;;
60336;SDS011;46978;50.288;28.624;2023-04-24T02:15:42;32.56;;;20.23;;
60336;SDS011;46978;50.288;28.624;2023-04-24T02:16:44;39.81;;;21.92;;
60336;SDS011;46978;50.288;28.624;2023-04-24T02:17:45;36.86;;;20.75;;
60336;SDS011;46978;50.288;28.624;2023-04-24T02:18:47;32.66;;;19.31;;
60336;SDS011;46978;50.288;28.624;2023-04-24T02:19:49;30.89;;;18.84;;
60336;SDS011;46978;50.288;28.624;2023-04-24T02:20:51;31.17;;;18.33;;
60336;SDS011;46978;50.288;28.624;2023-04-24T02:21:52;26.90;;;17.04;;
60336;SDS011;46978;50.288;28.624;2023-04-24T02:22:54;30.01;;;17.04;;
60336;SDS011;46978;50.288;28.624;2023-04-24T02:23:56;22.98;;;14.54;;
60336;SDS011;46978;50.288;28.624;2023-04-24T02:24:58;24.37;;;15.49;;
60336;SDS011;46978;50.288;28.624;2023-04-24T02:26:00;24.94;;;15.89;;
60336;SDS011;46978;50.288;28.624;2023-04-24T02:27:01;26.51;;;16.21;;
60336;SDS011;46978;50.288;28.624;2023-04-24T02:28:03;28.30;;;16.85;;
60336;SDS011;46978;50.288;28.624;2023-04-24T02:29:05;26.41;;;15.73;;
60336;SDS011;46978;50.288;28.624;2023-04-24T02:30:08;34.97;;;19.18;;
60336;SDS011;46978;50.288;28.624;2023-04-24T02:31:10;34.10;;;21.09;;
60336;SDS011;46978;50.288;28.624;2023-04-24T02:32:13;33.03;;;20.21;;
60336;SDS011;46978;50.288;28.624;2023-04-24T02:33:15;37.06;;;21.52;;
60336;SDS011;46978;50.288;28.624;2023-04-24T02:34:17;36.52;;;20.54;;
60336;SDS011;46978;50.288;28.624;2023-04-24T02:35:18;37.28;;;20.71;;
60336;SDS011;46978;50.288;28.624;2023-04-24T02:36:20;38.25;;;21.74;;
60336;SDS011;46978;50.288;28.624;2023-04-24T02:37:22;38.72;;;21.32;;
60336;SDS011;46978;50.288;28.624;2023-04-24T02:38:23;38.14;;;22.75;;
60336;SDS011;46978;50.288;28.624;2023-04-24T02:39:25;43.03;;;23.65;;
60336;SDS011;46978;50.288;28.624;2023-04-24T02:40:27;41.24;;;24.06;;
60336;SDS011;46978;50.288;28.624;2023-04-24T02:41:30;40.91;;;23.30;;
60336;SDS011;46978;50.288;28.624;2023-04-24T02:42:32;37.09;;;23.29;;
60336;SDS011;46978;50.288;28.624;2023-04-24T02:43:33;41.38;;;23.79;;
60336;SDS011;46978;50.288;28.624;2023-04-24T02:44:35;40.22;;;22.51;;
60336;SDS011;46978;50.288;28.624;2023-04-24T02:45:37;35.60;;;21.44;;
60336;SDS011;46978;50.288;28.624;2023-04-24T02:46:38;31.28;;;20.19;;
60336;SDS011;46978;50.288;28.624;2023-04-24T02:47:40;33.16;;;18.69;;
60336;SDS011;46978;50.288;28.624;2023-04-24T02:48:42;30.86;;;18.85;;
60336;SDS011;46978;50.288;28.624;2023-04-24T02:49:43;31.43;;;19.21;;
60336;SDS011;46978;50.288;28.624;2023-04-24T02:50:47;29.54;;;17.99;;
60336;SDS011;46978;50.288;28.624;2023-04-24T02:51:49;29.68;;;17.82;;
60336;SDS011;46978;50.288;28.624;2023-04-24T02:52:50;31.29;;;18.46;;
60336;SDS011;46978;50.288;28.624;2023-04-24T02:53:52;27.51;;;16.48;;
60336;SDS011;46978;50.288;28.624;2023-04-24T02:54:54;26.75;;;16.83;;
60336;SDS011;46978;50.288;28.624;2023-04-24T02:55:56;27.19;;;17.44;;
60336;SDS011;46978;50.288;28.624;2023-04-24T02:56:58;25.51;;;16.22;;
60336;SDS011;46978;50.288;28.624;2023-04-24T02:58:01;24.94;;;16.26;;
60336;SDS011;46978;50.288;28.624;2023-04-24T02:59:03;25.79;;;16.23;;
60336;SDS011;46978;50.288;28.624;2023-04-24T03:00:05;25.96;;;17.42;;
60336;SDS011;46978;50.288;28.624;2023-04-24T03:01:08;28.04;;;16.44;;
60336;SDS011;46978;50.288;28.624;2023-04-24T03:02:11;28.45;;;17.90;;
60336;SDS011;46978;50.288;28.624;2023-04-24T03:03:13;31.39;;;18.05;;
60336;SDS011;46978;50.288;28.624;2023-04-24T03:04:15;30.06;;;18.98;;
60336;SDS011;46978;50.288;28.624;2023-04-24T03:05:17;30.46;;;18.19;;
60336;SDS011;46978;50.288;28.624;2023-04-24T03:06:19;32.11;;;17.56;;
60336;SDS011;46978;50.288;28.624;2023-04-24T03:07:20;32.32;;;19.13;;
60336;SDS011;46978;50.288;28.624;2023-04-24T03:08:22;28.54;;;17.51;;
60336;SDS011;46978;50.288;28.624;2023-04-24T03:09:24;27.51;;;16.79;;
60336;SDS011;46978;50.288;28.624;2023-04-24T03:10:26;28.47;;;17.36;;
60336;SDS011;46978;50.288;28.624;2023-04-24T03:11:27;28.69;;;17.38;;
60336;SDS011;46978;50.288;28.624;2023-04-24T03:12:29;25.62;;;17.21;;
60336;SDS011;46978;50.288;28.624;2023-04-24T03:13:31;28.02;;;16.00;;
60336;SDS011;46978;50.288;28.624;2023-04-24T03:14:32;26.73;;;16.48;;
60336;SDS011;46978;50.288;28.624;2023-04-24T03:15:34;26.51;;;16.41;;
60336;SDS011;46978;50.288;28.624;2023-04-24T03:16:36;28.19;;;17.47;;
60336;SDS011;46978;50.288;28.624;2023-04-24T03:17:38;24.98;;;16.28;;
60336;SDS011;46978;50.288;28.624;2023-04-24T03:18:39;28.99;;;17.06;;
60336;SDS011;46978;50.288;28.624;2023-04-24T03:19:41;27.29;;;16.68;;
60336;SDS011;46978;50.288;28.624;2023-04-24T03:20:45;24.96;;;16.30;;
60336;SDS011;46978;50.288;28.624;2023-04-24T03:21:46;27.83;;;16.71;;
60336;SDS011;46978;50.288;28.624;2023-04-24T03:22:49;26.19;;;15.99;;
60336;SDS011;46978;50.288;28.624;2023-04-24T03:23:50;29.44;;;16.43;;
60336;SDS011;46978;50.288;28.624;2023-04-24T03:24:52;25.94;;;15.95;;
60336;SDS011;46978;50.288;28.624;2023-04-24T03:25:54;24.89;;;15.91;;
60336;SDS011;46978;50.288;28.624;2023-04-24T03:26:56;26.60;;;17.18;;
60336;SDS011;46978;50.288;28.624;2023-04-24T03:27:58;28.12;;;17.27;;
60336;SDS011;46978;50.288;28.624;2023-04-24T03:29:00;29.14;;;18.10;;
60336;SDS011;46978;50.288;28.624;2023-04-24T03:30:02;30.47;;;17.98;;
60336;SDS011;46978;50.288;28.624;2023-04-24T03:31:04;29.63;;;16.51;;
60336;SDS011;46978;50.288;28.624;2023-04-24T03:32:05;29.72;;;16.36;;
60336;SDS011;46978;50.288;28.624;2023-04-24T03:33:07;22.21;;;14.91;;
60336;SDS011;46978;50.288;28.624;2023-04-24T03:34:09;27.02;;;15.74;;
60336;SDS011;46978;50.288;28.624;2023-04-24T03:35:10;27.56;;;15.77;;
60336;SDS011;46978;50.288;28.624;2023-04-24T03:36:12;28.94;;;16.41;;
60336;SDS011;46978;50.288;28.624;2023-04-24T03:37:14;25.60;;;15.90;;
60336;SDS011;46978;50.288;28.624;2023-04-24T03:38:17;27.89;;;17.23;;
60336;SDS011;46978;50.288;28.624;2023-04-24T03:39:18;26.87;;;16.67;;
60336;SDS011;46978;50.288;28.624;2023-04-24T03:40:20;26.47;;;16.22;;
60336;SDS011;46978;50.288;28.624;2023-04-24T03:41:22;26.05;;;15.47;;
60336;SDS011;46978;50.288;28.624;2023-04-24T03:42:23;28.49;;;16.00;;
60336;SDS011;46978;50.288;28.624;2023-04-24T03:43:25;25.37;;;16.52;;
60336;SDS011;46978;50.288;28.624;2023-04-24T03:44:26;27.54;;;15.99;;
60336;SDS011;46978;50.288;28.624;2023-04-24T03:45:28;24.00;;;15.70;;
60336;SDS011;46978;50.288;28.624;2023-04-24T03:46:31;25.53;;;16.29;;
60336;SDS011;46978;50.288;28.624;2023-04-24T03:47:33;23.94;;;15.47;;
60336;SDS011;46978;50.288;28.624;2023-04-24T03:48:35;23.55;;;15.64;;
60336;SDS011;46978;50.288;28.624;2023-04-24T03:49:38;27.87;;;16.03;;
60336;SDS011;46978;50.288;28.624;2023-04-24T03:50:42;26.84;;;15.65;;
60336;SDS011;46978;50.288;28.624;2023-04-24T03:51:44;26.11;;;15.81;;
60336;SDS011;46978;50.288;28.624;2023-04-24T03:52:46;23.95;;;16.25;;
60336;SDS011;46978;50.288;28.624;2023-04-24T03:53:48;29.91;;;16.64;;
60336;SDS011;46978;50.288;28.624;2023-04-24T03:54:50;29.05;;;16.84;;
60336;SDS011;46978;50.288;28.624;2023-04-24T03:55:53;26.21;;;16.19;;
60336;SDS011;46978;50.288;28.624;2023-04-24T03:56:55;24.85;;;15.58;;
60336;SDS011;46978;50.288;28.624;2023-04-24T03:57:58;25.07;;;14.82;;
60336;SDS011;46978;50.288;28.624;2023-04-24T03:58:59;25.41;;;15.51;;
60336;SDS011;46978;50.288;28.624;2023-04-24T04:00:01;27.84;;;15.83;;
60336;SDS011;46978;50.288;28.624;2023-04-24T04:01:03;24.31;;;15.01;;
60336;SDS011;46978;50.288;28.624;2023-04-24T04:02:05;25.31;;;14.72;;
60336;SDS011;46978;50.288;28.624;2023-04-24T04:03:07;24.01;;;14.76;;
60336;SDS011;46978;50.288;28.624;2023-04-24T04:04:08;24.62;;;15.38;;
60336;SDS011;46978;50.288;28.624;2023-04-24T04:05:10;26.47;;;15.99;;
60336;SDS011;46978;50.288;28.624;2023-04-24T04:06:13;27.18;;;15.26;;
60336;SDS011;46978;50.288;28.624;2023-04-24T04:07:15;23.13;;;15.31;;
60336;SDS011;46978;50.288;28.624;2023-04-24T04:08:17;25.49;;;14.88;;
60336;SDS011;46978;50.288;28.624;2023-04-24T04:09:21;26.88;;;15.68;;
60336;SDS011;46978;50.288;28.624;2023-04-24T04:10:24;24.21;;;15.13;;
60336;SDS011;46978;50.288;28.624;2023-04-24T04:11:26;26.95;;;16.18;;
60336;SDS011;46978;50.288;28.624;2023-04-24T04:12:27;26.54;;;16.16;;
60336;SDS011;46978;50.288;28.624;2023-04-24T04:13:29;26.89;;;16.23;;
60336;SDS011;46978;50.288;28.624;2023-04-24T04:14:32;26.53;;;16.41;;
60336;SDS011;46978;50.288;28.624;2023-04-24T04:15:33;26.94;;;16.00;;
60336;SDS011;46978;50.288;28.624;2023-04-24T04:16:35;29.03;;;17.53;;
60336;SDS011;46978;50.288;28.624;2023-04-24T04:17:37;32.09;;;16.74;;
60336;SDS011;46978;50.288;28.624;2023-04-24T04:18:39;28.99;;;15.64;;
60336;SDS011;46978;50.288;28.624;2023-04-24T04:19:40;28.70;;;16.23;;
60336;SDS011;46978;50.288;28.624;2023-04-24T04:20:42;27.40;;;15.35;;
60336;SDS011;46978;50.288;28.624;2023-04-24T04:21:44;26.89;;;15.96;;
60336;SDS011;46978;50.288;28.624;2023-04-24T04:22:47;35.84;;;18.79;;
60336;SDS011;46978;50.288;28.624;2023-04-24T04:23:49;41.71;;;23.03;;
60336;SDS011;46978;50.288;28.624;2023-04-24T04:24:50;58.21;;;31.77;;
60336;SDS011;46978;50.288;28.624;2023-04-24T04:25:52;60.46;;;31.16;;
60336;SDS011;46978;50.288;28.624;2023-04-24T04:26:54;66.52;;;33.80;;
60336;SDS011;46978;50.288;28.624;2023-04-24T04:27:55;69.79;;;37.08;;
60336;SDS011;46978;50.288;28.624;2023-04-24T04:28:57;76.57;;;39.68;;
60336;SDS011;46978;50.288;28.624;2023-04-24T04:29:59;90.13;;;44.87;;
60336;SDS011;46978;50.288;28.624;2023-04-24T04:31:03;155.57;;;64.53;;
60336;SDS011;46978;50.288;28.624;2023-04-24T04:32:05;162.15;;;67.06;;
60336;SDS011;46978;50.288;28.624;2023-04-24T04:33:06;158.81;;;65.13;;
60336;SDS011;46978;50.288;28.624;2023-04-24T04:34:08;129.06;;;58.44;;
60336;SDS011;46978;50.288;28.624;2023-04-24T04:35:10;114.20;;;51.31;;
60336;SDS011;46978;50.288;28.624;2023-04-24T04:36:12;93.05;;;43.97;;
60336;SDS011;46978;50.288;28.624;2023-04-24T04:37:13;87.72;;;41.65;;
60336;SDS011;46978;50.288;28.624;2023-04-24T04:38:15;59.78;;;29.34;;
60336;SDS011;46978;50.288;28.624;2023-04-24T04:39:17;64.73;;;29.54;;
60336;SDS011;46978;50.288;28.624;2023-04-24T04:40:19;62.47;;;31.15;;
60336;SDS011;46978;50.288;28.624;2023-04-24T04:41:21;52.45;;;25.75;;
60336;SDS011;46978;50.288;28.624;2023-04-24T04:42:23;43.50;;;22.16;;
60336;SDS011;46978;50.288;28.624;2023-04-24T04:43:25;48.93;;;26.56;;
60336;SDS011;46978;50.288;28.624;2023-04-24T04:44:26;52.34;;;26.85;;
60336;SDS011;46978;50.288;28.624;2023-04-24T04:45:28;54.93;;;29.14;;
60336;SDS011;46978;50.288;28.624;2023-04-24T04:46:30;50.65;;;26.73;;
60336;SDS011;46978;50.288;28.624;2023-04-24T04:47:32;43.54;;;23.93;;
60336;SDS011;46978;50.288;28.624;2023-04-24T04:48:34;39.11;;;22.39;;
60336;SDS011;46978;50.288;28.624;2023-04-24T04:49:36;38.23;;;20.74;;
60336;SDS011;46978;50.288;28.624;2023-04-24T04:50:39;31.39;;;19.09;;
60336;SDS011;46978;50.288;28.624;2023-04-24T04:51:41;36.85;;;19.49;;
60336;SDS011;46978;50.288;28.624;2023-04-24T04:52:42;31.41;;;18.14;;
60336;SDS011;46978;50.288;28.624;2023-04-24T04:53:44;30.00;;;18.41;;
60336;SDS011;46978;50.288;28.624;2023-04-24T04:54:45;35.51;;;18.77;;
60336;SDS011;46978;50.288;28.624;2023-04-24T04:55:47;40.63;;;21.99;;
60336;SDS011;46978;50.288;28.624;2023-04-24T04:56:52;44.05;;;24.48;;
60336;SDS011;46978;50.288;28.624;2023-04-24T04:57:53;43.23;;;24.79;;
60336;SDS011;46978;50.288;28.624;2023-04-24T04:58:55;35.36;;;19.81;;
60336;SDS011;46978;50.288;28.624;2023-04-24T04:59:57;38.23;;;20.25;;
60336;SDS011;46978;50.288;28.624;2023-04-24T05:00:58;26.09;;;16.14;;
60336;SDS011;46978;50.288;28.624;2023-04-24T05:02:00;30.17;;;16.34;;
60336;SDS011;46978;50.288;28.624;2023-04-24T05:03:02;26.19;;;15.42;;
60336;SDS011;46978;50.288;28.624;2023-04-24T05:04:04;24.79;;;15.53;;
60336;SDS011;46978;50.288;28.624;2023-04-24T05:05:06;23.81;;;14.62;;
60336;SDS011;46978;50.288;28.624;2023-04-24T05:06:08;31.80;;;15.35;;
60336;SDS011;46978;50.288;28.624;2023-04-24T05:07:10;31.33;;;16.49;;
60336;SDS011;46978;50.288;28.624;2023-04-24T05:08:12;34.10;;;16.69;;
60336;SDS011;46978;50.288;28.624;2023-04-24T05:09:14;45.86;;;23.45;;
60336;SDS011;46978;50.288;28.624;2023-04-24T05:10:16;38.68;;;23.21;;
60336;SDS011;46978;50.288;28.624;2023-04-24T05:11:17;36.01;;;21.11;;
60336;SDS011;46978;50.288;28.624;2023-04-24T05:12:19;49.34;;;24.72;;
60336;SDS011;46978;50.288;28.624;2023-04-24T05:13:21;61.75;;;30.09;;
60336;SDS011;46978;50.288;28.624;2023-04-24T05:14:22;44.94;;;23.03;;
60336;SDS011;46978;50.288;28.624;2023-04-24T05:15:24;40.16;;;22.15;;
60336;SDS011;46978;50.288;28.624;2023-04-24T05:16:26;34.38;;;21.01;;
60336;SDS011;46978;50.288;28.624;2023-04-24T05:17:28;31.04;;;18.01;;
60336;SDS011;46978;50.288;28.624;2023-04-24T05:18:29;21.46;;;13.65;;
60336;SDS011;46978;50.288;28.624;2023-04-24T05:19:31;22.34;;;13.44;;
60336;SDS011;46978;50.288;28.624;2023-04-24T05:20:33;28.63;;;13.58;;
60336;SDS011;46978;50.288;28.624;2023-04-24T05:21:34;23.57;;;13.96;;
60336;SDS011;46978;50.288;28.624;2023-04-24T05:22:36;25.33;;;13.68;;
60336;SDS011;46978;50.288;28.624;2023-04-24T05:23:37;24.00;;;13.66;;
60336;SDS011;46978;50.288;28.624;2023-04-24T05:24:39;25.56;;;13.53;;
60336;SDS011;46978;50.288;28.624;2023-04-24T05:25:41;21.99;;;12.00;;
60336;SDS011;46978;50.288;28.624;2023-04-24T05:26:43;23.87;;;11.46;;
60336;SDS011;46978;50.288;28.624;2023-04-24T05:27:46;18.77;;;10.35;;
60336;SDS011;46978;50.288;28.624;2023-04-24T05:28:48;16.09;;;10.33;;
60336;SDS011;46978;50.288;28.624;2023-04-24T05:29:49;16.42;;;10.13;;
60336;SDS011;46978;50.288;28.624;2023-04-24T05:30:52;17.44;;;9.71;;
60336;SDS011;46978;50.288;28.624;2023-04-24T05:31:53;15.57;;;9.14;;
60336;SDS011;46978;50.288;28.624;2023-04-24T05:32:55;12.21;;;8.46;;
60336;SDS011;46978;50.288;28.624;2023-04-24T05:33:56;13.47;;;8.64;;
60336;SDS011;46978;50.288;28.624;2023-04-24T05:34:58;19.96;;;9.41;;
60336;SDS011;46978;50.288;28.624;2023-04-24T05:36:00;16.09;;;8.17;;
60336;SDS011;46978;50.288;28.624;2023-04-24T05:37:01;13.72;;;8.46;;
60336;SDS011;46978;50.288;28.624;2023-04-24T05:38:03;12.21;;;7.78;;
60336;SDS011;46978;50.288;28.624;2023-04-24T05:39:05;12.65;;;7.82;;
60336;SDS011;46978;50.288;28.624;2023-04-24T05:40:07;14.79;;;8.07;;
60336;SDS011;46978;50.288;28.624;2023-04-24T05:41:09;16.01;;;8.49;;
60336;SDS011;46978;50.288;28.624;2023-04-24T05:42:11;15.38;;;8.91;;
60336;SDS011;46978;50.288;28.624;2023-04-24T05:43:13;13.21;;;8.43;;
60336;SDS011;46978;50.288;28.624;2023-04-24T05:44:15;10.79;;;7.02;;
60336;SDS011;46978;50.288;28.624;2023-04-24T05:45:16;13.84;;;7.34;;
60336;SDS011;46978;50.288;28.624;2023-04-24T05:46:18;12.21;;;7.48;;
60336;SDS011;46978;50.288;28.624;2023-04-24T05:47:20;13.11;;;7.42;;
60336;SDS011;46978;50.288;28.624;2023-04-24T05:48:21;12.11;;;7.34;;
60336;SDS011;46978;50.288;28.624;2023-04-24T05:49:23;13.97;;;7.57;;
60336;SDS011;46978;50.288;28.624;2023-04-24T05:50:25;13.78;;;8.08;;
60336;SDS011;46978;50.288;28.624;2023-04-24T05:51:27;11.36;;;7.41;;
60336;SDS011;46978;50.288;28.624;2023-04-24T05:52:28;12.81;;;7.18;;
60336;SDS011;46978;50.288;28.624;2023-04-24T05:53:30;13.74;;;7.36;;
60336;SDS011;46978;50.288;28.624;2023-04-24T05:54:32;13.09;;;8.47;;
60336;SDS011;46978;50.288;28.624;2023-04-24T05:55:33;13.34;;;8.14;;
60336;SDS011;46978;50.288;28.624;2023-04-24T05:57:57;14.31;;;7.02;;
60336;SDS011;46978;50.288;28.624;2023-04-24T05:58:58;12.05;;;6.76;;
60336;SDS011;46978;50.288;28.624;2023-04-24T06:00:00;16.36;;;7.61;;